Time;durP1;ratioP1;P1;durP2;ratioP2;P2;SDS_P1;SDS_P2;PMS_P1;PMS_P2;Temp;Humidity;BMP_temperature;BMP_pressure;BME280_temperature;BME280_humidity;BME280_pressure;Samples;Min_cycle;Max_cycle;Signal;HPM_P1;HPM_P2
2022/06/08 00:00:42;;;;;;;11.05;3.95;;;19.30;99.90;;;;;;5069917;28;20063;-71
2022/06/08 00:03:57;;;;;;;10.18;4.22;;;19.30;99.90;;;;;;5070624;28;20044;-73
2022/06/08 00:07:02;;;;;;;8.70;3.85;;;19.30;99.90;;;;;;5070730;28;20072;-73
2022/06/08 00:10:07;;;;;;;12.15;4.20;;;19.30;99.90;;;;;;5070057;28;20043;-73
2022/06/08 00:13:12;;;;;;;11.73;4.05;;;19.30;99.90;;;;;;5057894;28;20043;-72
2022/06/08 00:16:17;;;;;;;13.35;4.80;;;19.30;99.90;;;;;;5050226;28;20044;-72
2022/06/08 00:19:21;;;;;;;10.73;4.40;;;19.20;99.90;;;;;;5065798;28;20043;-72
2022/06/08 00:22:25;;;;;;;10.05;3.97;;;19.20;99.90;;;;;;5070773;28;20043;-72
2022/06/08 00:25:29;;;;;;;14.32;4.45;;;19.20;99.90;;;;;;5050395;28;20040;-72
2022/06/08 00:28:33;;;;;;;9.45;3.90;;;19.20;99.90;;;;;;5063351;28;20395;-72
2022/06/08 00:31:38;;;;;;;16.13;4.40;;;19.10;99.90;;;;;;5057787;28;20059;-72
2022/06/08 00:34:41;;;;;;;13.10;4.95;;;19.10;99.90;;;;;;5070345;28;20058;-72
2022/06/08 00:37:46;;;;;;;21.02;5.82;;;19.20;99.90;;;;;;5057377;28;20055;-72
2022/06/08 00:41:08;;;;;;;13.52;5.15;;;19.20;99.90;;;;;;5069177;28;20043;-72
2022/06/08 00:44:35;;;;;;;14.52;5.78;;;19.30;99.90;;;;;;5061805;28;20506;-72
2022/06/08 00:47:45;;;;;;;13.30;5.78;;;19.40;99.90;;;;;;5053966;28;20044;-72
2022/06/08 00:50:53;;;;;;;11.93;4.40;;;19.40;99.90;;;;;;5070520;28;20039;-72
2022/06/08 00:54:01;;;;;;;14.18;5.50;;;19.50;99.90;;;;;;5073805;28;20044;-72
2022/06/08 00:57:28;;;;;;;16.38;5.18;;;19.60;99.90;;;;;;5073796;28;20501;-72
2022/06/08 01:00:37;;;;;;;17.90;5.40;;;19.70;99.90;;;;;;5071625;28;20387;-72
2022/06/08 01:03:42;;;;;;;9.65;4.80;;;19.80;99.90;;;;;;5061328;28;20047;-72
2022/06/08 01:06:56;;;;;;;14.48;4.88;;;19.90;99.90;;;;;;5073434;28;20051;-72
2022/06/08 01:10:01;;;;;;;10.40;4.30;;;19.90;99.90;;;;;;5041906;28;20048;-72
2022/06/08 01:13:05;;;;;;;9.57;4.40;;;20.00;99.90;;;;;;5069361;28;20044;-72
2022/06/08 01:16:11;;;;;;;8.68;4.20;;;20.00;99.90;;;;;;5060892;28;20051;-72
2022/06/08 01:19:16;;;;;;;16.42;4.40;;;20.00;99.90;;;;;;5041545;28;20040;-72
2022/06/08 01:22:22;;;;;;;10.88;4.18;;;20.00;99.90;;;;;;5059838;28;20043;-73
2022/06/08 01:25:37;;;;;;;13.80;5.13;;;20.10;99.90;;;;;;5061082;28;20043;-72
2022/06/08 01:29:07;;;;;;;15.10;4.95;;;20.20;99.90;;;;;;5061662;28;20395;-73
2022/06/08 01:32:33;;;;;;;15.75;4.43;;;20.20;99.90;;;;;;5073616;28;20044;-73
2022/06/08 01:36:02;;;;;;;14.55;5.03;;;20.30;99.90;;;;;;5059850;28;20059;-72
2022/06/08 01:39:20;;;;;;;17.13;5.47;;;20.30;99.90;;;;;;5075474;28;20051;-72
2022/06/08 01:43:02;;;;;;;10.55;4.30;;;20.40;99.90;;;;;;5073464;28;20043;-72
2022/06/08 01:47:06;;;;;;;10.30;5.43;;;20.40;99.90;;;;;;5048108;28;20064;-72
2022/06/08 01:50:20;;;;;;;11.57;5.05;;;20.40;99.90;;;;;;5020236;28;20048;-72
2022/06/08 01:53:37;;;;;;;12.32;4.28;;;20.40;99.90;;;;;;5068151;28;20040;-72
2022/06/08 01:56:53;;;;;;;11.93;5.40;;;20.40;99.90;;;;;;5071720;28;20059;-72
2022/06/08 02:00:09;;;;;;;10.07;5.03;;;20.40;99.90;;;;;;5060553;28;20063;-72
2022/06/08 02:03:43;;;;;;;18.20;6.13;;;20.40;99.90;;;;;;5060260;28;20048;-72
2022/06/08 02:07:03;;;;;;;12.73;5.30;;;20.40;99.90;;;;;;5072168;28;20040;-73
2022/06/08 02:10:18;;;;;;;9.82;5.07;;;20.40;99.90;;;;;;5059924;28;21079;-72
2022/06/08 02:13:50;;;;;;;9.27;5.50;;;20.40;99.90;;;;;;5060585;28;20044;-73
2022/06/08 02:17:03;;;;;;;10.90;5.65;;;20.40;99.90;;;;;;5059820;28;20043;-73
2022/06/08 02:20:23;;;;;;;10.07;6.63;;;20.40;99.90;;;;;;5072197;28;20035;-73
2022/06/08 02:23:45;;;;;;;14.80;5.47;;;20.50;99.90;;;;;;5060024;28;20051;-73
2022/06/08 02:27:35;;;;;;;12.23;5.45;;;19.70;99.90;;;;;;5059844;28;20047;-73
2022/06/08 02:30:54;;;;;;;14.20;5.20;;;19.40;99.90;;;;;;5039711;28;20047;-72
2022/06/08 02:37:32;;;;;;;11.07;5.30;;;19.30;99.90;;;;;;5070225;28;20047;-73
2022/06/08 02:40:41;;;;;;;13.63;5.85;;;19.20;99.90;;;;;;5059879;28;20039;-72
2022/06/08 02:43:49;;;;;;;13.32;6.07;;;19.20;99.90;;;;;;5059384;28;20052;-72
2022/06/08 02:47:07;;;;;;;11.82;5.70;;;19.10;99.90;;;;;;5059512;28;20039;-72
2022/06/08 02:50:18;;;;;;;15.30;6.10;;;19.00;99.90;;;;;;5059407;28;20059;-72
2022/06/08 02:53:28;;;;;;;9.40;5.18;;;18.90;99.90;;;;;;5039820;28;20044;-72
2022/06/08 02:56:45;;;;;;;15.88;6.35;;;18.90;99.90;;;;;;5058629;28;20494;-72
2022/06/08 03:00:19;;;;;;;15.80;6.22;;;18.90;99.90;;;;;;5058665;28;20043;-72
2022/06/08 03:03:48;;;;;;;12.07;5.88;;;18.80;99.90;;;;;;5059302;28;20043;-73
2022/06/08 03:07:04;;;;;;;13.50;6.53;;;18.60;99.90;;;;;;5038892;28;20040;-72
2022/06/08 03:10:13;;;;;;;16.63;6.32;;;18.50;99.90;;;;;;5054966;28;20524;-73
2022/06/08 03:13:31;;;;;;;16.20;5.47;;;18.40;99.90;;;;;;5059222;28;20043;-73
2022/06/08 03:16:49;;;;;;;13.82;6.10;;;18.40;99.90;;;;;;5058652;28;20509;-72
2022/06/08 03:19:54;;;;;;;16.77;6.45;;;18.40;99.90;;;;;;5051452;28;20044;-72
2022/06/08 03:22:59;;;;;;;16.98;6.47;;;18.40;99.90;;;;;;5054470;28;20387;-72
2022/06/08 03:26:09;;;;;;;16.30;6.93;;;18.30;99.90;;;;;;5058756;28;20734;-72
2022/06/08 03:29:15;;;;;;;17.88;6.20;;;18.20;99.90;;;;;;5059411;28;20051;-72
2022/06/08 03:32:20;;;;;;;16.67;6.97;;;18.10;99.90;;;;;;5070519;28;20039;-72
2022/06/08 03:35:26;;;;;;;16.02;7.15;;;18.00;99.90;;;;;;5058603;28;20059;-72
2022/06/08 03:38:31;;;;;;;17.33;7.22;;;17.80;99.90;;;;;;5059405;28;20051;-72
2022/06/08 03:41:36;;;;;;;13.98;6.68;;;17.70;99.90;;;;;;5061561;28;20422;-72
2022/06/08 03:44:41;;;;;;;12.63;6.32;;;17.60;99.90;;;;;;5056222;28;20067;-72
2022/06/08 03:47:49;;;;;;;10.55;6.38;;;17.50;99.90;;;;;;5070658;28;20398;-72
2022/06/08 03:50:55;;;;;;;11.65;6.18;;;17.50;99.90;;;;;;5069034;28;20501;-72
2022/06/08 03:54:05;;;;;;;18.90;7.50;;;17.50;99.90;;;;;;5065941;28;20048;-72
2022/06/08 03:57:11;;;;;;;12.52;7.32;;;17.60;99.90;;;;;;5070801;28;20052;-73
2022/06/08 04:00:16;;;;;;;16.50;7.47;;;17.60;99.90;;;;;;5050895;28;20499;-73
2022/06/08 04:03:33;;;;;;;18.30;6.93;;;17.70;99.90;;;;;;5064737;28;20067;-73
2022/06/08 04:06:38;;;;;;;14.52;7.10;;;17.70;99.90;;;;;;5058302;28;20055;-72
2022/06/08 04:09:43;;;;;;;13.38;6.50;;;17.60;99.90;;;;;;5058682;28;20051;-73
2022/06/08 04:12:48;;;;;;;14.73;7.45;;;17.60;99.90;;;;;;5058651;28;20418;-73
2022/06/08 04:15:52;;;;;;;15.27;7.60;;;17.70;99.90;;;;;;5071756;28;20236;-73
2022/06/08 04:19:01;;;;;;;17.58;7.72;;;17.70;99.90;;;;;;5075126;28;20052;-73
2022/06/08 04:22:09;;;;;;;17.33;7.18;;;17.70;99.90;;;;;;5061383;28;20052;-72
2022/06/08 04:25:16;;;;;;;17.55;7.80;;;17.70;99.90;;;;;;5062217;28;20047;-73
2022/06/08 04:28:26;;;;;;;24.98;10.48;;;18.00;99.90;;;;;;5062189;28;20526;-73
2022/06/08 04:31:38;;;;;;;19.63;6.53;;;19.10;99.90;;;;;;5042259;28;20068;-72
2022/06/08 04:34:51;;;;;;;17.00;6.93;;;20.80;99.90;;;;;;5049181;28;20055;-73
2022/06/08 04:37:56;;;;;;;17.65;6.22;;;22.40;99.90;;;;;;5070491;28;20116;-72
2022/06/08 04:41:03;;;;;;;15.38;5.85;;;24.00;99.90;;;;;;5061682;28;20379;-73
2022/06/08 04:44:10;;;;;;;13.70;5.53;;;24.90;99.90;;;;;;5060695;28;20043;-73
2022/06/08 04:47:16;;;;;;;10.90;5.47;;;25.80;99.90;;;;;;5059852;28;20055;-73
2022/06/08 04:50:22;;;;;;;10.52;5.25;;;26.00;99.90;;;;;;5061504;28;20047;-72
2022/06/08 04:53:26;;;;;;;11.68;5.50;;;26.40;99.90;;;;;;5058739;28;20044;-73
2022/06/08 04:56:30;;;;;;;12.80;4.93;;;26.80;99.90;;;;;;5059385;28;20055;-73
2022/06/08 04:59:36;;;;;;;14.52;4.97;;;27.20;99.90;;;;;;5060966;28;20059;-73
2022/06/08 05:02:51;;;;;;;11.57;5.07;;;27.70;99.90;;;;;;5041035;28;20415;-73
2022/06/08 05:06:16;;;;;;;13.45;5.07;;;28.00;99.90;;;;;;5069565;28;20043;-73
2022/06/08 05:09:20;;;;;;;9.05;4.60;;;26.80;99.90;;;;;;5060137;28;20067;-73
2022/06/08 05:12:27;;;;;;;14.43;6.47;;;27.70;99.90;;;;;;5060884;28;20395;-73
2022/06/08 05:15:34;;;;;;;15.20;6.15;;;27.10;99.90;;;;;;5072358;28;20047;-74
2022/06/08 05:18:40;;;;;;;13.60;5.57;;;27.40;99.90;;;;;;5059810;28;20040;-73
2022/06/08 05:21:49;;;;;;;13.98;6.28;;;26.70;99.90;;;;;;5060563;28;20044;-73
2022/06/08 05:24:58;;;;;;;13.70;5.53;;;27.70;99.90;;;;;;5059913;28;20043;-73
2022/06/08 05:28:04;;;;;;;20.67;7.47;;;28.80;99.90;;;;;;5058204;28;20509;-73
2022/06/08 05:31:14;;;;;;;15.55;6.93;;;29.00;99.90;;;;;;5059714;28;20055;-73
2022/06/08 05:34:20;;;;;;;16.55;7.00;;;29.60;99.80;;;;;;5072808;28;20056;-73
2022/06/08 05:37:24;;;;;;;20.10;6.25;;;29.70;99.70;;;;;;5058929;28;20048;-73
2022/06/08 05:40:32;;;;;;;16.80;5.43;;;29.90;99.70;;;;;;5059516;28;20048;-73
2022/06/08 05:43:39;;;;;;;14.80;5.95;;;30.00;98.80;;;;;;5071910;28;20051;-73
2022/06/08 05:46:44;;;;;;;11.60;4.35;;;28.50;99.40;;;;;;5061937;28;20572;-73
2022/06/08 05:49:51;;;;;;;13.57;5.72;;;29.00;99.00;;;;;;5059299;28;20411;-73
2022/06/08 05:52:55;;;;;;;23.80;7.63;;;29.50;99.00;;;;;;5059861;28;20063;-73
2022/06/08 05:56:00;;;;;;;11.48;4.68;;;27.90;99.90;;;;;;5056195;28;20414;-73
2022/06/08 05:59:08;;;;;;;11.50;5.50;;;28.60;99.20;;;;;;5058894;28;20498;-73
2022/06/08 06:02:16;;;;;;;15.60;5.60;;;26.80;99.90;;;;;;5059464;28;20051;-73
2022/06/08 06:05:30;;;;;;;14.95;5.15;;;27.90;99.90;;;;;;5058973;28;20055;-74
2022/06/08 06:08:37;;;;;;;9.77;5.30;;;29.00;99.20;;;;;;5058314;28;20039;-73
2022/06/08 06:11:46;;;;;;;16.42;5.63;;;26.40;99.90;;;;;;5070374;28;20051;-73
2022/06/08 06:14:51;;;;;;;14.23;6.13;;;27.00;99.90;;;;;;5071628;28;20063;-74
2022/06/08 06:17:56;;;;;;;14.50;5.88;;;27.20;99.90;;;;;;5060944;28;20048;-73
2022/06/08 06:21:00;;;;;;;16.15;5.57;;;25.90;99.90;;;;;;5056513;28;20047;-74
2022/06/08 06:24:21;;;;;;;14.43;5.63;;;24.80;99.90;;;;;;5059418;28;20043;-73
2022/06/08 06:27:55;;;;;;;12.27;5.88;;;25.30;99.90;;;;;;5071550;28;20049;-73
2022/06/08 06:31:28;;;;;;;9.88;5.72;;;26.10;99.90;;;;;;5076609;28;20048;-73
2022/06/08 06:34:40;;;;;;;10.45;5.40;;;26.10;99.90;;;;;;5063230;28;20052;-73
2022/06/08 06:37:43;;;;;;;12.98;5.32;;;25.80;99.90;;;;;;5073627;28;20510;-73
2022/06/08 06:40:48;;;;;;;13.40;4.57;;;25.50;99.90;;;;;;5066758;28;20035;-72
2022/06/08 06:43:55;;;;;;;10.05;4.80;;;26.50;99.90;;;;;;5068343;28;20403;-74
2022/06/08 06:47:25;;;;;;;10.68;3.85;;;28.10;99.90;;;;;;5083506;28;20494;-74
2022/06/08 06:50:33;;;;;;;9.88;4.70;;;29.00;99.10;;;;;;5072374;28;20055;-74
2022/06/08 06:53:40;;;;;;;12.43;4.57;;;30.20;98.20;;;;;;5063809;28;20047;-73
2022/06/08 06:56:45;;;;;;;8.30;5.03;;;30.40;97.40;;;;;;5054422;28;20047;-74
2022/06/08 06:59:55;;;;;;;13.65;4.38;;;30.40;97.10;;;;;;5087562;28;20047;-74
2022/06/08 07:03:00;;;;;;;12.50;4.18;;;31.30;96.30;;;;;;5065142;28;20055;-73
2022/06/08 07:06:04;;;;;;;12.02;5.00;;;31.00;96.10;;;;;;5057178;28;20055;-73
2022/06/08 07:09:11;;;;;;;11.38;5.10;;;28.80;97.40;;;;;;5058813;28;20035;-73
2022/06/08 07:12:20;;;;;;;14.00;5.00;;;29.30;98.10;;;;;;5058345;28;20051;-72
2022/06/08 07:15:29;;;;;;;10.80;5.18;;;27.40;99.60;;;;;;5057624;28;20056;-74
2022/06/08 07:18:34;;;;;;;14.38;5.20;;;27.80;99.50;;;;;;5059172;28;20047;-73
2022/06/08 07:21:40;;;;;;;14.13;5.03;;;28.70;98.30;;;;;;5066699;28;20044;-73
2022/06/08 07:24:44;;;;;;;8.38;5.22;;;27.00;99.80;;;;;;5069832;28;20631;-72
2022/06/08 07:27:49;;;;;;;8.75;4.70;;;28.40;99.60;;;;;;5072855;28;20067;-73
2022/06/08 07:30:53;;;;;;;15.27;4.97;;;29.70;97.90;;;;;;5069316;28;20043;-76
2022/06/08 07:33:58;;;;;;;9.00;4.70;;;29.50;98.50;;;;;;5068747;28;20055;-74
2022/06/08 07:37:03;;;;;;;21.25;4.95;;;30.00;96.50;;;;;;5069245;28;20493;-74
2022/06/08 07:40:08;;;;;;;9.77;5.18;;;30.20;97.70;;;;;;5082616;28;20051;-75
2022/06/08 07:43:14;;;;;;;11.68;4.85;;;31.10;96.20;;;;;;5069781;28;20063;-74
2022/06/08 07:46:19;;;;;;;12.23;4.53;;;31.70;95.50;;;;;;5068526;28;20055;-75
2022/06/08 07:49:36;;;;;;;14.70;4.85;;;29.00;97.60;;;;;;5069393;28;20056;-72
2022/06/08 07:52:40;;;;;;;15.73;4.28;;;29.80;97.30;;;;;;5067685;28;20502;-74
2022/06/08 07:55:45;;;;;;;13.20;4.88;;;28.40;98.60;;;;;;5060268;28;20063;-74
2022/06/08 07:58:50;;;;;;;9.85;3.72;;;30.00;96.70;;;;;;5070966;28;20036;-73
2022/06/08 08:01:54;;;;;;;8.48;4.38;;;29.00;97.50;;;;;;5070225;28;20391;-73
2022/06/08 08:04:59;;;;;;;11.38;4.28;;;29.80;96.90;;;;;;5070123;28;20055;-73
2022/06/08 08:08:04;;;;;;;10.23;4.10;;;28.60;97.60;;;;;;5069495;28;20098;-73
2022/06/08 08:11:08;;;;;;;9.30;4.57;;;28.20;99.10;;;;;;5070210;28;20043;-73
2022/06/08 08:14:13;;;;;;;13.13;4.78;;;28.30;99.10;;;;;;5069979;28;20036;-74
2022/06/08 08:17:20;;;;;;;11.30;4.18;;;29.90;98.10;;;;;;5069096;28;20044;-73
2022/06/08 08:20:25;;;;;;;9.98;4.03;;;27.90;98.20;;;;;;5068117;28;20510;-73
2022/06/08 08:23:29;;;;;;;9.65;3.17;;;29.50;96.90;;;;;;5068767;28;20033;-74
2022/06/08 08:26:33;;;;;;;9.98;3.33;;;30.20;95.70;;;;;;5076838;28;20055;-73
2022/06/08 08:29:38;;;;;;;12.45;3.30;;;32.80;93.70;;;;;;5037824;28;20040;-75
2022/06/08 08:32:42;;;;;;;8.50;3.17;;;32.80;93.70;;;;;;5072220;28;20518;-76
2022/06/08 08:35:47;;;;;;;8.13;3.30;;;32.60;92.60;;;;;;5078776;28;20051;-75
2022/06/08 08:38:51;;;;;;;7.53;3.10;;;32.70;92.50;;;;;;5080948;28;20027;-75
2022/06/08 08:45:18;;;;;;;9.60;3.40;;;32.70;92.60;;;;;;5075598;28;20044;-74
2022/06/08 08:48:29;;;;;;;6.18;2.78;;;32.30;91.50;;;;;;5065744;28;20513;-75
2022/06/08 08:51:47;;;;;;;6.53;2.60;;;32.70;90.90;;;;;;5078676;28;20050;-75
2022/06/08 08:54:57;;;;;;;9.63;2.53;;;34.80;89.40;;;;;;5068975;28;20039;-75
2022/06/08 08:58:16;;;;;;;8.55;3.35;;;36.70;86.10;;;;;;5068003;28;20498;-75
2022/06/08 09:01:34;;;;;;;6.97;2.20;;;35.40;86.90;;;;;;5064261;28;20048;-75
2022/06/08 09:04:45;;;;;;;5.28;2.35;;;35.20;83.90;;;;;;5077350;28;20382;-74
2022/06/08 09:07:52;;;;;;;9.88;2.17;;;33.70;86.80;;;;;;5075781;28;20059;-72
2022/06/08 09:10:59;;;;;;;5.40;2.00;;;35.20;86.10;;;;;;5072520;28;20048;-74
2022/06/08 09:14:17;;;;;;;6.80;2.17;;;33.90;86.00;;;;;;5057722;28;20055;-74
2022/06/08 09:17:39;;;;;;;3.42;1.73;;;36.70;84.00;;;;;;5071833;28;20044;-74
2022/06/08 09:20:43;;;;;;;4.43;1.83;;;37.10;82.10;;;;;;5069685;28;20473;-73
2022/06/08 09:23:52;;;;;;;4.88;1.90;;;36.30;80.30;;;;;;5070028;28;20052;-73
2022/06/08 09:27:10;;;;;;;6.80;1.75;;;37.40;80.60;;;;;;5071227;28;20494;-74
2022/06/08 09:30:24;;;;;;;5.55;1.98;;;39.40;78.50;;;;;;5069640;28;20064;-75
2022/06/08 09:33:36;;;;;;;2.90;2.00;;;40.30;76.00;;;;;;5072993;28;20383;-75
2022/06/08 09:36:44;;;;;;;6.65;2.40;;;39.70;74.30;;;;;;5061935;28;20049;-73
2022/06/08 09:39:48;;;;;;;5.55;2.10;;;41.10;73.70;;;;;;5073806;28;20482;-72
2022/06/08 09:43:03;;;;;;;4.13;1.67;;;34.80;77.00;;;;;;5055777;28;20052;-74
2022/06/08 09:46:18;;;;;;;5.28;1.85;;;36.80;78.40;;;;;;5069038;28;20039;-74
2022/06/08 09:53:21;;;;;;;6.70;2.05;;;34.50;77.90;;;;;;5069265;28;20047;-75
2022/06/08 09:56:47;;;;;;;4.43;1.70;;;33.20;80.70;;;;;;5066369;28;20043;-72
2022/06/08 09:59:54;;;;;;;5.85;1.80;;;36.90;77.10;;;;;;5070056;28;20039;-73
2022/06/08 10:03:19;;;;;;;4.88;1.63;;;35.60;76.40;;;;;;5077672;28;20039;-75
2022/06/08 10:06:26;;;;;;;3.65;1.40;;;36.50;76.40;;;;;;5069261;28;20051;-75
2022/06/08 10:09:55;;;;;;;3.05;1.50;;;35.40;73.80;;;;;;5057327;28;20047;-75
2022/06/08 10:13:03;;;;;;;2.17;1.25;;;38.20;72.20;;;;;;5087930;28;20047;-76
2022/06/08 10:16:16;;;;;;;4.32;1.40;;;41.20;70.20;;;;;;5071776;28;20410;-74
2022/06/08 10:19:45;;;;;;;5.20;1.42;;;37.30;71.20;;;;;;5060077;28;20036;-75
2022/06/08 10:22:56;;;;;;;3.40;1.20;;;38.60;71.80;;;;;;5071245;28;20044;-76
2022/06/08 10:26:37;;;;;;;2.58;1.20;;;40.70;70.50;;;;;;5070594;28;20059;-75
2022/06/08 10:30:41;;;;;;;2.35;1.02;;;42.20;66.20;;;;;;5070298;28;20055;-75
2022/06/08 10:34:10;;;;;;;2.80;1.05;;;41.40;65.40;;;;;;5034355;28;20046;-73
2022/06/08 10:37:22;;;;;;;2.10;0.90;;;40.70;64.20;;;;;;5064530;28;20043;-72
2022/06/08 10:40:36;;;;;;;2.80;1.00;;;39.10;63.10;;;;;;5067269;28;20383;-74
2022/06/08 10:43:41;;;;;;;2.20;1.10;;;42.00;62.10;;;;;;5067461;28;20032;-74
2022/06/08 10:46:47;;;;;;;4.32;1.10;;;41.00;63.30;;;;;;5066535;28;20055;-74
2022/06/08 10:50:22;;;;;;;3.47;1.20;;;42.40;62.00;;;;;;5067594;28;20041;-73
2022/06/08 10:56:54;;;;;;;1.35;0.95;;;45.80;59.90;;;;;;5062055;28;20047;-73
2022/06/08 11:00:20;;;;;;;3.43;1.13;;;46.40;58.00;;;;;;5067989;28;20395;-76
2022/06/08 11:03:33;;;;;;;3.33;1.02;;;44.60;57.10;;;;;;5066895;28;20509;-73
2022/06/08 11:06:46;;;;;;;2.13;1.20;;;43.80;58.20;;;;;;5065807;28;20493;-72
2022/06/08 11:10:00;;;;;;;3.22;1.30;;;41.00;61.60;;;;;;5069089;28;20048;-72
2022/06/08 11:13:18;;;;;;;3.33;1.30;;;36.00;65.20;;;;;;5066175;28;20044;-74
2022/06/08 11:16:31;;;;;;;4.32;1.65;;;35.00;66.00;;;;;;5054612;28;20055;-74
2022/06/08 11:19:35;;;;;;;5.82;1.60;;;34.80;70.20;;;;;;5069522;28;20036;-75
2022/06/08 11:23:05;;;;;;;5.65;1.80;;;36.00;68.30;;;;;;5067550;28;20404;-74
2022/06/08 11:26:23;;;;;;;2.50;1.80;;;34.40;69.30;;;;;;5066890;28;20051;-74
2022/06/08 11:29:31;;;;;;;3.47;1.88;;;34.90;71.90;;;;;;5067088;28;20494;-74
2022/06/08 11:32:35;;;;;;;5.95;2.03;;;35.30;70.10;;;;;;5067898;28;20051;-73
2022/06/08 11:35:53;;;;;;;3.95;1.58;;;34.70;70.40;;;;;;5040991;28;20051;-73
2022/06/08 11:39:02;;;;;;;4.63;1.80;;;36.40;67.90;;;;;;5053211;28;20056;-74
2022/06/08 11:42:58;;;;;;;5.53;2.03;;;36.60;67.50;;;;;;5068093;28;20043;-74
2022/06/08 11:46:04;;;;;;;2.95;1.90;;;36.70;67.60;;;;;;5022873;28;20414;-74
2022/06/08 11:49:33;;;;;;;6.38;2.45;;;35.20;68.00;;;;;;5065871;28;20383;-73
2022/06/08 11:52:42;;;;;;;5.22;1.70;;;35.40;70.10;;;;;;5065369;28;20043;-74
2022/06/08 11:55:57;;;;;;;4.80;1.65;;;36.10;70.40;;;;;;5077270;28;20075;-73
2022/06/08 11:59:05;;;;;;;3.75;1.58;;;36.70;68.20;;;;;;5067234;28;20067;-74
2022/06/08 12:02:23;;;;;;;4.00;1.60;;;36.40;67.90;;;;;;5069681;28;20039;-75
2022/06/08 12:05:35;;;;;;;4.07;1.80;;;36.50;68.20;;;;;;5065305;28;20044;-75
2022/06/08 12:08:50;;;;;;;11.32;1.73;;;37.50;66.90;;;;;;5073005;28;20830;-73
2022/06/08 12:12:02;;;;;;;3.53;1.60;;;38.00;67.40;;;;;;5079747;28;20494;-73
2022/06/08 12:15:43;;;;;;;3.83;1.75;;;37.30;67.90;;;;;;5069853;28;20043;-74
2022/06/08 12:19:17;;;;;;;6.03;1.77;;;36.80;67.30;;;;;;5068576;28;20048;-73
2022/06/08 12:22:23;;;;;;;7.80;1.92;;;36.20;68.50;;;;;;5072126;28;20039;-73
2022/06/08 12:25:28;;;;;;;4.07;2.10;;;35.90;69.50;;;;;;5067312;28;20505;-73
2022/06/08 12:28:38;;;;;;;10.40;1.75;;;33.70;69.60;;;;;;5080996;28;20055;-73
2022/06/08 12:31:43;;;;;;;4.65;1.88;;;34.30;70.20;;;;;;5072059;28;20048;-73
2022/06/08 12:35:06;;;;;;;2.63;1.60;;;34.20;71.00;;;;;;5066533;28;20047;-73
2022/06/08 12:38:27;;;;;;;2.78;1.92;;;34.80;69.80;;;;;;5062387;28;20043;-74
2022/06/08 12:41:42;;;;;;;7.80;1.67;;;35.80;68.90;;;;;;5078267;28;20398;-74
2022/06/08 12:44:53;;;;;;;5.30;1.95;;;37.00;70.10;;;;;;5074671;28;20052;-74
2022/06/08 12:48:00;;;;;;;4.97;1.80;;;36.40;67.70;;;;;;5065888;28;20035;-74
2022/06/08 12:51:25;;;;;;;6.60;1.67;;;36.20;67.90;;;;;;5075684;28;20398;-74
2022/06/08 12:54:32;;;;;;;7.18;1.90;;;35.80;68.60;;;;;;5077723;28;20050;-73
2022/06/08 12:57:38;;;;;;;4.35;1.92;;;35.60;70.30;;;;;;5079282;28;20043;-73
2022/06/08 13:00:53;;;;;;;13.95;2.88;;;35.40;70.80;;;;;;5070053;28;20055;-74
2022/06/08 13:03:57;;;;;;;5.15;1.88;;;35.60;70.80;;;;;;5068374;28;20047;-73
2022/06/08 13:07:01;;;;;;;5.00;1.80;;;36.10;70.80;;;;;;5065651;28;20048;-73
2022/06/08 13:10:06;;;;;;;7.78;2.10;;;34.20;72.20;;;;;;5070566;28;20044;-74
2022/06/08 13:13:20;;;;;;;13.38;2.40;;;35.10;71.60;;;;;;5070316;28;20549;-72
2022/06/08 13:16:29;;;;;;;8.05;1.98;;;34.50;71.00;;;;;;5059098;28;20050;-73
2022/06/08 13:19:33;;;;;;;6.95;1.90;;;33.70;72.20;;;;;;5067030;28;20047;-73
2022/06/08 13:22:37;;;;;;;6.05;1.77;;;34.10;70.50;;;;;;5058760;28;20044;-73
2022/06/08 13:25:43;;;;;;;8.27;1.92;;;35.00;70.30;;;;;;5070530;28;20108;-74
2022/06/08 13:28:48;;;;;;;4.95;2.30;;;35.20;70.80;;;;;;5057340;28;20047;-73
2022/06/08 13:31:53;;;;;;;8.20;2.47;;;35.30;72.10;;;;;;5070545;28;20055;-75
2022/06/08 13:35:02;;;;;;;5.25;2.28;;;35.10;71.50;;;;;;5069659;28;20399;-74
2022/06/08 13:38:08;;;;;;;8.40;2.50;;;35.00;73.20;;;;;;5069986;28;20044;-74
2022/06/08 13:41:13;;;;;;;8.63;2.13;;;34.70;73.90;;;;;;5067276;28;20059;-75
2022/06/08 13:44:29;;;;;;;9.68;2.67;;;34.70;73.70;;;;;;5076337;28;20419;-74
2022/06/08 13:47:35;;;;;;;4.28;2.20;;;34.80;74.00;;;;;;5065020;28;20494;-74
2022/06/08 13:50:42;;;;;;;4.47;2.08;;;34.90;73.90;;;;;;5069380;28;20050;-74
2022/06/08 13:53:47;;;;;;;10.02;2.03;;;34.80;73.60;;;;;;5069985;28;20055;-75
2022/06/08 13:56:52;;;;;;;6.28;1.75;;;34.70;72.70;;;;;;5068014;28;20047;-73
2022/06/08 13:59:57;;;;;;;9.43;2.17;;;34.80;71.90;;;;;;5073275;28;20039;-73
2022/06/08 14:03:26;;;;;;;7.70;1.83;;;35.10;73.30;;;;;;5070279;28;20043;-74
2022/06/08 14:13:16;;;;;;;7.75;2.35;;;34.10;73.30;;;;;;5068906;28;20051;-74
2022/06/08 14:16:20;;;;;;;9.70;2.80;;;34.10;73.90;;;;;;5067654;28;20712;-73
2022/06/08 14:19:28;;;;;;;11.60;2.75;;;33.90;73.90;;;;;;5070950;28;20607;-74
2022/06/08 14:22:35;;;;;;;9.95;2.80;;;33.10;74.90;;;;;;5068686;28;20490;-73
2022/06/08 14:25:41;;;;;;;16.42;3.03;;;33.00;76.50;;;;;;5064097;28;20037;-74
2022/06/08 14:28:48;;;;;;;8.38;2.83;;;32.50;77.80;;;;;;5070167;28;20048;-73
2022/06/08 14:31:57;;;;;;;15.15;3.50;;;30.50;79.50;;;;;;5070378;28;20039;-74
2022/06/08 14:35:05;;;;;;;9.80;2.60;;;30.20;81.30;;;;;;5068718;28;20051;-74
2022/06/08 14:38:14;;;;;;;10.30;2.90;;;31.00;80.90;;;;;;5061981;28;20489;-72
2022/06/08 14:41:18;;;;;;;24.40;3.15;;;30.00;83.00;;;;;;5067942;28;20035;-74
2022/06/08 14:44:22;;;;;;;11.23;2.90;;;31.10;82.10;;;;;;5067441;28;20387;-73
2022/06/08 14:47:27;;;;;;;28.88;3.78;;;30.90;81.00;;;;;;5069036;28;20298;-73
2022/06/08 14:50:34;;;;;;;9.95;3.33;;;31.70;80.50;;;;;;5063596;28;20047;-72
2022/06/08 14:53:38;;;;;;;11.45;3.28;;;30.90;80.30;;;;;;5066026;28;20039;-74
2022/06/08 14:56:43;;;;;;;11.20;2.83;;;30.30;81.90;;;;;;5062700;28;20040;-73
2022/06/08 14:59:48;;;;;;;10.27;2.65;;;30.70;83.70;;;;;;5069483;28;20394;-73
2022/06/08 15:02:52;;;;;;;10.50;3.00;;;31.50;83.10;;;;;;5069740;28;20051;-74
2022/06/08 15:06:00;;;;;;;11.75;3.33;;;32.10;82.10;;;;;;5058122;28;20043;-75
2022/06/08 15:09:05;;;;;;;9.75;3.05;;;32.00;82.20;;;;;;5070353;28;20467;-74
2022/06/08 15:12:14;;;;;;;8.38;3.30;;;31.30;83.20;;;;;;5072448;28;20425;-73
2022/06/08 15:15:23;;;;;;;8.88;3.13;;;31.50;84.30;;;;;;5073526;28;20387;-72
2022/06/08 15:18:28;;;;;;;11.68;3.40;;;30.50;85.90;;;;;;5069325;28;20052;-73
2022/06/08 15:21:32;;;;;;;15.27;4.20;;;30.60;86.60;;;;;;5065968;28;20045;-73
2022/06/08 15:24:38;;;;;;;13.45;3.20;;;30.60;86.20;;;;;;5069207;28;20048;-73
2022/06/08 15:27:48;;;;;;;15.23;3.25;;;30.80;87.40;;;;;;5068670;28;20043;-73
2022/06/08 15:30:53;;;;;;;8.13;2.47;;;30.90;87.30;;;;;;5070263;28;20051;-73
2022/06/08 15:33:57;;;;;;;10.63;3.00;;;30.80;88.30;;;;;;5069405;28;20051;-74
2022/06/08 15:37:02;;;;;;;16.23;3.10;;;31.00;88.20;;;;;;5067193;28;20039;-73
2022/06/08 15:40:11;;;;;;;13.88;3.67;;;30.40;88.60;;;;;;5070493;28;20050;-72
2022/06/08 15:43:15;;;;;;;15.10;3.90;;;30.10;88.90;;;;;;5070494;28;20363;-73
2022/06/08 15:46:22;;;;;;;12.23;3.63;;;29.90;90.20;;;;;;5065931;28;20039;-73
2022/06/08 15:49:30;;;;;;;13.48;3.58;;;29.50;90.00;;;;;;5052536;28;20040;-73
2022/06/08 15:52:40;;;;;;;18.70;3.85;;;29.90;90.60;;;;;;5069736;28;20533;-73
2022/06/08 15:55:44;;;;;;;16.30;3.85;;;29.90;90.60;;;;;;5069388;28;20036;-73
2022/06/08 15:58:54;;;;;;;15.82;3.33;;;29.90;90.40;;;;;;5062917;28;20043;-73
2022/06/08 16:02:00;;;;;;;9.23;3.67;;;29.90;90.30;;;;;;5074217;28;20047;-72
2022/06/08 16:05:07;;;;;;;10.68;3.42;;;30.30;90.50;;;;;;5069760;28;20047;-72
2022/06/08 16:08:12;;;;;;;8.80;2.80;;;30.10;90.00;;;;;;5066656;28;20039;-72
2022/06/08 16:11:18;;;;;;;13.07;3.88;;;30.00;89.10;;;;;;5056642;28;20036;-73
2022/06/08 16:14:23;;;;;;;19.20;3.78;;;30.00;89.40;;;;;;5074887;28;20043;-72
2022/06/08 16:17:27;;;;;;;10.70;3.05;;;29.90;90.10;;;;;;5069059;28;20051;-72
2022/06/08 16:20:35;;;;;;;18.27;2.75;;;30.00;88.80;;;;;;5077759;28;20051;-72
2022/06/08 16:23:39;;;;;;;10.32;2.92;;;29.60;89.30;;;;;;5075968;28;20048;-72
2022/06/08 16:26:43;;;;;;;9.43;3.03;;;29.60;89.40;;;;;;5069201;28;20047;-73
2022/06/08 16:29:47;;;;;;;11.85;3.22;;;29.30;90.30;;;;;;5068186;28;20487;-72
2022/06/08 16:32:52;;;;;;;13.25;3.22;;;29.10;90.10;;;;;;5066006;28;20044;-72
2022/06/08 16:35:56;;;;;;;13.35;3.33;;;28.60;90.10;;;;;;5065944;28;20047;-72
2022/06/08 16:39:02;;;;;;;12.20;3.50;;;28.20;90.40;;;;;;5042253;28;20043;-71
2022/06/08 16:42:06;;;;;;;14.07;3.95;;;27.80;90.30;;;;;;5070530;28;20044;-72
2022/06/08 16:45:10;;;;;;;13.23;2.63;;;27.60;90.60;;;;;;5067884;28;20055;-71